Aérodrome :
LOGIN :

S'inscrire | Disclaimer

   EN    FR    IT 

 










Légende :    VFR   VFR Marginal   IFR   IFR Intensif   IFR Très Intensif
Visi : 
Plafond : 
>= 8 km
>= 3000ft
5 à 8 km
1000 à 3000 ft
1500m à 5 km
500 à 1000 ft
800 à 1500m
200 à 500 ft
< 800m
< 200 ft
Symboles :   Orages  Brouillard  Fortes neiges  Fortes précipitations  Vent > 20 kt
SIGMETs :   Divers  Orages  Givrage  Turbulence  Onde Orograph.  Cendres Volcan.






- Altitude de l'aérodrome : 170 ft
- Code IATA : BGO


ENBR - Bergen , Flesland

DERNIER METAR :
  • 121820Z 08006KT 9999 VCSH FEW005 SCT022 BKN030 03/02 Q0994 TEMPO SHRA BKN014 SCT018CB RMK WIND 1200FT 10004KT

METARs EXPIRÉS :
  • 121750Z 08003KT 9999 -RA FEW008 SCT022 BKN035 02/02 Q0994 TEMPO BKN014 RMK WIND 1200FT 08005KT
  • 121720Z 06004KT 9999 -RA FEW008 SCT021 BKN038 02/02 Q0994 TEMPO BKN012 RMK WIND 1200FT 06003KT
  • 121650Z VRB03KT 9999 -RA SCT010 BKN024 03/02 Q0993 TEMPO BKN012 RMK WIND 1200FT 06003KT
  • 121620Z 03005KT 9999 -RA FEW015 BKN025 03/02 Q0993 NOSIG RMK WIND 1200FT 09004KT
  • 121550Z 02005KT 340V050 9999 -RA FEW015 BKN023 03/02 Q0993 NOSIG RMK WIND 1200FT 10007KT

TAF AMD TAF ENBR
Valide du 12 à 18h jusqu'au 13 à 18h UTC


121813Z 1218/1318 08005KT 9999 -SHRA FEW005 SCT020 BKN030
BECMG 1221/1223 14010KT
TEMPO 1218/1315 SHRA BKN014 SCT018CB



MET'MAP, la Météo Aéronautique d'un coup d'oeil ! - Copyright ORBIFLY Décembre 2007 - Disclaimer

ORBIFLY MET'MAP TEAM :

Programmation & Développement : Alexandra Zaïnal
Conception & Développement : Baudouin d'Aumeries
Co-Programmation & Développement : Marc-Olivier Méhu
Soutien technique & logistique : Manuel Goepfert

Contact : metmap@orbifly.com




SOURCES & CREDITS :

   NOAA